createdAt,value
2022-09-23T00:01:17.112Z,3.88
2022-09-23T00:03:45.701Z,3.80
2022-09-23T00:06:18.192Z,4.28
2022-09-23T00:08:45.271Z,4.13
2022-09-23T00:11:15.422Z,4.03
2022-09-23T00:13:44.506Z,4.25
2022-09-23T00:16:17.589Z,3.83
2022-09-23T00:18:44.861Z,4.25
2022-09-23T00:21:14.110Z,4.15
2022-09-23T00:23:43.022Z,3.65
2022-09-23T00:26:13.085Z,3.72
2022-09-23T00:28:40.838Z,3.88
2022-09-23T00:31:10.955Z,4.22
2022-09-23T00:33:38.142Z,4.20
2022-09-23T00:36:07.636Z,4.72
2022-09-23T00:38:34.622Z,4.25
2022-09-23T00:41:01.609Z,4.93
2022-09-23T00:43:48.095Z,4.65
2022-09-23T00:46:25.353Z,4.13
2022-09-23T00:48:58.530Z,4.35
2022-09-23T00:51:32.714Z,4.18
2022-09-23T00:54:00.612Z,4.80
2022-09-23T00:56:27.667Z,4.30
2022-09-23T00:58:54.687Z,4.68
2022-09-23T01:01:21.792Z,4.30
2022-09-23T01:03:50.305Z,4.60
2022-09-23T01:06:17.734Z,4.38
2022-09-23T01:08:47.489Z,4.15
2022-09-23T01:11:51.597Z,4.78
2022-09-23T01:15:02.186Z,4.20
2022-09-23T01:17:44.113Z,4.40
2022-09-23T01:20:57.219Z,4.40
2022-09-23T01:24:21.301Z,4.00
2022-09-23T01:27:30.947Z,4.32
2022-09-23T01:30:42.450Z,4.07
2022-09-23T01:33:30.371Z,4.82
2022-09-23T01:36:27.645Z,4.32
2022-09-23T01:39:08.006Z,4.18
2022-09-23T01:42:03.279Z,4.32
2022-09-23T01:44:43.559Z,4.90
2022-09-23T01:47:17.934Z,3.55
2022-09-23T01:50:01.609Z,4.22
2022-09-23T01:52:43.557Z,4.60
2022-09-23T01:55:22.510Z,5.22
2022-09-23T01:58:03.948Z,4.05
2022-09-23T02:03:27.669Z,4.38
2022-09-23T02:06:03.555Z,4.00
2022-09-23T02:08:35.775Z,4.72
2022-09-23T02:11:16.441Z,4.28
2022-09-23T02:14:02.881Z,4.22
2022-09-23T02:16:39.633Z,4.53
2022-09-23T02:19:27.268Z,4.43
2022-09-23T02:22:20.633Z,3.78
2022-09-23T02:24:49.452Z,4.07
2022-09-23T02:28:01.511Z,3.67
2022-09-23T02:30:36.538Z,3.70
2022-09-23T02:33:11.990Z,4.32
2022-09-23T02:36:46.327Z,4.35
2022-09-23T02:39:15.088Z,3.38
2022-09-23T02:42:06.431Z,3.75
2022-09-23T02:44:34.251Z,4.07
2022-09-23T02:47:01.370Z,4.40
2022-09-23T02:49:30.439Z,3.80
2022-09-23T02:52:00.159Z,4.47
2022-09-23T02:54:28.979Z,4.05
2022-09-23T02:56:57.471Z,3.92
2022-09-23T02:59:24.888Z,4.18
2022-09-23T03:02:28.229Z,3.92
2022-09-23T03:05:27.182Z,4.60
2022-09-23T03:08:28.303Z,4.28
2022-09-23T03:11:17.225Z,4.30
2022-09-23T03:14:25.717Z,5.13
2022-09-23T03:17:07.647Z,4.53
2022-09-23T03:19:47.957Z,4.53
2022-09-23T03:22:31.936Z,5.03
2022-09-23T03:25:07.308Z,5.05
2022-09-23T03:27:36.723Z,4.72
2022-09-23T03:30:05.084Z,4.82
2022-09-23T03:32:35.020Z,5.28
2022-09-23T03:35:04.462Z,4.88
2022-09-23T03:37:36.696Z,4.80
2022-09-23T03:40:17.971Z,4.68
2022-09-23T03:42:49.151Z,5.50
2022-09-23T03:45:22.839Z,4.63
2022-09-23T03:47:49.767Z,4.43
2022-09-23T03:50:20.331Z,4.82
2022-09-23T03:52:48.316Z,4.67
2022-09-23T03:55:16.541Z,4.82
2022-09-23T03:57:44.905Z,5.55
2022-09-23T04:00:13.494Z,5.13
2022-09-23T04:02:41.178Z,5.38
2022-09-23T04:05:09.106Z,5.35
2022-09-23T04:07:36.198Z,6.78
2022-09-23T04:10:05.069Z,6.72
2022-09-23T04:12:32.030Z,6.05
2022-09-23T04:14:59.017Z,6.40
2022-09-23T04:17:25.983Z,6.78
2022-09-23T04:19:53.059Z,6.50
2022-09-23T04:22:20.013Z,5.88
2022-09-23T04:24:47.101Z,4.70
2022-09-23T04:27:14.038Z,5.43
2022-09-23T04:29:40.981Z,5.38
2022-09-23T04:32:07.928Z,5.55
2022-09-23T04:34:34.815Z,5.78
2022-09-23T04:37:02.551Z,5.93
2022-09-23T04:39:29.556Z,6.78
2022-09-23T04:41:56.557Z,6.30
2022-09-23T04:44:23.771Z,6.65
2022-09-23T04:46:52.094Z,7.10
2022-09-23T04:49:19.565Z,6.03
2022-09-23T04:51:46.576Z,6.05
2022-09-23T04:54:15.191Z,6.30
2022-09-23T04:56:45.427Z,7.72
2022-09-23T04:59:12.525Z,7.10
2022-09-23T05:01:39.607Z,6.63
2022-09-23T05:04:10.417Z,6.80
2022-09-23T05:06:37.581Z,7.15
2022-09-23T05:09:07.725Z,7.85
2022-09-23T05:11:35.189Z,8.05
2022-09-23T05:14:02.184Z,8.05
2022-09-23T05:16:30.175Z,7.35
2022-09-23T05:18:58.360Z,7.15
2022-09-23T05:21:29.254Z,5.97
2022-09-23T05:23:59.836Z,6.70
2022-09-23T05:26:32.189Z,6.28
2022-09-23T05:29:00.211Z,7.75
2022-09-23T05:31:29.188Z,7.05
2022-09-23T05:34:02.239Z,6.82
2022-09-23T05:36:35.603Z,8.07
2022-09-23T05:39:05.332Z,7.57
2022-09-23T05:41:34.612Z,7.25
2022-09-23T05:44:02.225Z,6.45
2022-09-23T05:46:31.028Z,6.15
2022-09-23T05:49:03.540Z,7.88
2022-09-23T05:51:38.645Z,6.22
2022-09-23T05:54:07.026Z,6.72
2022-09-23T05:56:38.477Z,5.95
2022-09-23T05:59:07.373Z,6.68
2022-09-23T06:01:36.824Z,4.65
2022-09-23T06:04:06.213Z,5.00
2022-09-23T06:06:42.159Z,6.30
2022-09-23T06:09:13.586Z,6.10
2022-09-23T06:14:13.714Z,4.72
2022-09-23T06:16:40.837Z,4.57
2022-09-23T06:19:07.887Z,6.30
2022-09-23T06:21:37.947Z,5.10
2022-09-23T06:24:06.888Z,4.78
2022-09-23T06:26:35.517Z,3.80
2022-09-23T06:29:04.616Z,4.95
2022-09-23T06:31:32.389Z,4.18
2022-09-23T06:34:09.643Z,4.88
2022-09-23T06:36:43.878Z,4.32
2022-09-23T06:39:13.481Z,4.90
2022-09-23T06:41:40.747Z,4.47
2022-09-23T06:44:12.789Z,4.53
2022-09-23T06:46:40.796Z,5.15
2022-09-23T06:49:08.654Z,4.43
2022-09-23T06:51:35.614Z,4.03
2022-09-23T06:54:02.979Z,3.38
2022-09-23T06:56:33.484Z,4.43
2022-09-23T06:59:03.466Z,3.95
2022-09-23T07:01:30.565Z,4.22
2022-09-23T07:03:57.879Z,4.30
2022-09-23T07:06:24.976Z,4.07
2022-09-23T07:08:53.600Z,4.25
2022-09-23T07:11:23.612Z,4.20
2022-09-23T07:13:51.226Z,3.70
2022-09-23T07:16:18.497Z,3.83
2022-09-23T07:18:45.967Z,3.47
2022-09-23T07:21:16.004Z,4.00
2022-09-23T07:23:48.172Z,4.07
2022-09-23T07:26:15.986Z,3.33
2022-09-23T07:28:43.564Z,4.68
2022-09-23T07:31:13.365Z,3.65
2022-09-23T07:33:44.437Z,4.03
2022-09-23T07:36:14.723Z,3.63
2022-09-23T07:38:45.414Z,3.80
2022-09-23T07:41:17.640Z,3.50
2022-09-23T07:43:47.442Z,3.50
2022-09-23T07:46:17.774Z,3.78
2022-09-23T07:48:46.130Z,3.28
2022-09-23T07:51:19.302Z,3.28
2022-09-23T07:53:53.991Z,3.08
2022-09-23T07:56:24.380Z,3.60
2022-09-23T07:59:00.538Z,3.73
2022-09-23T08:01:36.455Z,3.25
2022-09-23T08:04:08.808Z,3.35
2022-09-23T08:06:37.202Z,3.28
2022-09-23T08:09:04.810Z,3.55
2022-09-23T08:11:31.953Z,3.08
2022-09-23T08:13:59.391Z,3.45
2022-09-23T08:16:27.131Z,3.03
2022-09-23T08:18:54.640Z,3.80
2022-09-23T08:21:22.846Z,3.70
2022-09-23T08:23:50.245Z,3.60
2022-09-23T08:26:21.579Z,2.58
2022-09-23T08:28:49.466Z,2.75
2022-09-23T08:31:17.074Z,2.90
2022-09-23T08:33:44.645Z,3.25
2022-09-23T08:36:11.649Z,2.95
2022-09-23T08:38:38.701Z,2.75
2022-09-23T08:41:33.688Z,3.15
2022-09-23T08:44:19.558Z,2.55
2022-09-23T08:47:23.456Z,2.72
2022-09-23T08:50:01.862Z,2.33
2022-09-23T08:52:34.873Z,2.40
2022-09-23T08:55:03.802Z,2.97
2022-09-23T08:57:40.221Z,2.42
2022-09-23T09:00:08.042Z,2.40
2022-09-23T09:02:36.871Z,2.78
2022-09-23T09:05:09.414Z,2.80
2022-09-23T09:07:40.357Z,3.05
2022-09-23T09:10:28.935Z,5.32
2022-09-23T09:13:10.195Z,2.00
2022-09-23T09:18:21.012Z,1.95
2022-09-23T09:21:14.683Z,2.03
2022-09-23T09:24:00.481Z,2.40
2022-09-23T09:26:30.430Z,1.85
2022-09-23T09:29:36.185Z,1.90
2022-09-23T09:32:36.402Z,2.50
2022-09-23T09:35:17.352Z,2.83
2022-09-23T09:37:47.930Z,2.00
2022-09-23T09:40:17.497Z,1.90
2022-09-23T09:42:49.959Z,1.88
2022-09-23T09:45:59.365Z,2.30
2022-09-23T09:48:53.858Z,1.55
2022-09-23T09:51:23.278Z,2.20
2022-09-23T09:53:53.830Z,2.05
2022-09-23T09:56:27.650Z,2.03
2022-09-23T09:59:08.627Z,2.22
2022-09-23T10:01:36.174Z,2.03
2022-09-23T10:04:20.417Z,2.15
2022-09-23T10:07:27.852Z,2.58
2022-09-23T10:09:58.354Z,2.00
2022-09-23T10:12:44.198Z,2.40
2022-09-23T10:15:33.351Z,2.53
2022-09-23T10:18:02.328Z,1.90
2022-09-23T10:20:39.231Z,1.83
2022-09-23T10:23:08.536Z,1.67
2022-09-23T10:25:36.758Z,1.60
2022-09-23T10:28:53.052Z,2.13
2022-09-23T10:31:26.929Z,1.90
2022-09-23T10:33:57.655Z,2.00
2022-09-23T10:36:25.167Z,1.60
2022-09-23T10:39:36.631Z,1.58
2022-09-23T10:43:01.307Z,1.20
2022-09-23T10:45:58.230Z,1.80
2022-09-23T10:49:10.310Z,1.23
2022-09-23T10:52:31.449Z,1.20
2022-09-23T10:55:11.804Z,1.23
2022-09-23T10:58:17.793Z,1.50
2022-09-23T11:01:12.872Z,1.35
2022-09-23T11:07:54.852Z,1.83
2022-09-23T11:33:14.350Z,1.00
2022-09-23T11:38:47.723Z,0.90
2022-09-23T11:41:29.824Z,1.05
2022-09-23T11:44:04.544Z,0.90
2022-09-23T11:46:38.325Z,1.00
2022-09-23T11:49:17.188Z,1.30
2022-09-23T11:52:13.293Z,1.00
2022-09-23T11:54:47.044Z,0.90
2022-09-23T11:57:41.969Z,1.92
2022-09-23T12:00:24.669Z,1.10
2022-09-23T12:03:18.611Z,1.10
2022-09-23T12:05:51.626Z,0.82
2022-09-23T12:08:30.086Z,1.60
2022-09-23T12:11:21.899Z,1.30
2022-09-23T12:13:57.149Z,0.90
2022-09-23T12:16:57.121Z,0.85
2022-09-23T12:20:05.780Z,1.17
2022-09-23T12:23:07.774Z,0.80
2022-09-23T12:25:48.799Z,1.20
2022-09-23T12:28:23.238Z,0.90
2022-09-23T12:30:53.458Z,1.60
2022-09-23T12:33:29.053Z,1.27
2022-09-23T12:36:28.348Z,3.03
2022-09-23T12:39:35.705Z,1.55
2022-09-23T12:42:06.401Z,1.80
2022-09-23T12:44:42.048Z,1.23
2022-09-23T12:47:38.533Z,1.98
2022-09-23T12:50:44.002Z,1.45
2022-09-23T12:53:56.109Z,1.30
2022-09-23T12:56:28.789Z,1.33
2022-09-23T12:59:20.612Z,1.42
2022-09-23T13:01:47.981Z,1.25
2022-09-23T13:05:02.584Z,1.33
2022-09-23T13:07:34.305Z,1.77
2022-09-23T13:10:09.235Z,2.13
2022-09-23T13:12:39.933Z,1.67
2022-09-23T13:15:18.362Z,2.60
2022-09-23T13:17:45.566Z,1.13
2022-09-23T13:20:42.071Z,2.53
2022-09-23T13:23:30.527Z,1.45
2022-09-23T13:26:00.780Z,1.98
2022-09-23T13:28:44.875Z,1.60
2022-09-23T13:31:16.855Z,2.92
2022-09-23T13:34:04.926Z,1.65
2022-09-23T13:36:44.524Z,2.08
2022-09-23T13:39:23.883Z,2.13
2022-09-23T13:41:54.151Z,1.65
2022-09-23T13:44:21.915Z,2.30
2022-09-23T13:46:52.660Z,1.35
2022-09-23T13:49:25.994Z,1.10
2022-09-23T13:51:54.330Z,1.40
2022-09-23T13:54:33.624Z,1.75
2022-09-23T13:57:00.755Z,2.13
2022-09-23T13:59:30.512Z,1.20
2022-09-23T14:02:17.032Z,2.10
2022-09-23T14:04:45.024Z,2.10
2022-09-23T14:07:17.000Z,1.98
2022-09-23T14:09:47.782Z,1.98
2022-09-23T14:12:15.896Z,2.10
2022-09-23T14:14:43.600Z,1.35
2022-09-23T14:17:18.870Z,2.90
2022-09-23T14:19:47.282Z,1.77
2022-09-23T14:22:28.538Z,1.58
2022-09-23T14:24:57.857Z,1.17
2022-09-23T14:27:31.002Z,2.30
2022-09-23T14:29:58.687Z,5.13
2022-09-23T14:32:28.902Z,1.05
2022-09-23T14:35:16.624Z,4.75
2022-09-23T14:38:04.533Z,1.73
2022-09-23T14:40:34.406Z,1.20
2022-09-23T14:43:28.387Z,1.33
2022-09-23T14:45:58.085Z,1.50
2022-09-23T14:48:28.886Z,1.60
2022-09-23T14:53:48.871Z,1.80
2022-09-23T14:56:19.548Z,1.30
2022-09-23T14:58:58.334Z,3.28
2022-09-23T15:01:39.378Z,2.10
2022-09-23T15:04:18.569Z,2.70
2022-09-23T15:06:51.050Z,2.40
2022-09-23T15:09:23.953Z,1.90
2022-09-23T15:12:01.775Z,1.98
2022-09-23T15:14:38.467Z,1.92
2022-09-23T15:17:15.610Z,1.50
2022-09-23T15:19:42.883Z,1.80
2022-09-23T15:22:10.312Z,2.40
2022-09-23T15:24:43.819Z,2.38
2022-09-23T15:27:32.470Z,1.92
2022-09-23T15:30:18.202Z,2.97
2022-09-23T15:32:46.268Z,2.22
2022-09-23T15:35:15.937Z,2.13
2022-09-23T15:37:43.925Z,1.90
2022-09-23T15:40:32.967Z,1.88
2022-09-23T15:43:02.705Z,2.60
2022-09-23T15:45:40.424Z,2.33
2022-09-23T15:48:12.076Z,2.20
2022-09-23T15:50:41.577Z,1.90
2022-09-23T15:53:21.983Z,1.73
2022-09-23T15:58:23.664Z,2.10
2022-09-23T16:00:56.365Z,2.30
2022-09-23T16:03:30.945Z,1.80
2022-09-23T16:06:03.407Z,2.10
2022-09-23T16:08:33.299Z,2.70
2022-09-23T16:11:00.615Z,3.00
2022-09-23T16:13:27.689Z,2.60
2022-09-23T16:15:54.661Z,3.08
2022-09-23T16:18:21.733Z,3.00
2022-09-23T16:20:50.388Z,2.80
2022-09-23T16:23:35.897Z,2.95
2022-09-23T16:26:34.843Z,2.95
2022-09-23T16:29:02.555Z,3.83
2022-09-23T16:31:32.963Z,3.65
2022-09-23T16:34:02.798Z,4.65
2022-09-23T16:36:35.976Z,5.65
2022-09-23T16:39:05.818Z,4.65
2022-09-23T16:41:33.104Z,4.05
2022-09-23T16:44:01.817Z,3.42
2022-09-23T16:46:30.008Z,3.20
2022-09-23T16:48:58.284Z,5.68
2022-09-23T16:51:31.081Z,4.07
2022-09-23T16:53:59.519Z,2.20
2022-09-23T16:56:29.419Z,2.28
2022-09-23T16:58:57.121Z,2.35
2022-09-23T17:01:45.149Z,2.28
2022-09-23T17:04:13.594Z,2.05
2022-09-23T17:06:52.076Z,1.92
2022-09-23T17:09:21.167Z,2.47
2022-09-23T17:12:30.587Z,2.33
2022-09-23T17:14:57.548Z,2.17
2022-09-23T17:17:24.637Z,2.50
2022-09-23T17:19:51.673Z,2.75
2022-09-23T17:22:18.575Z,2.35
2022-09-23T17:24:45.733Z,3.22
2022-09-23T17:27:12.768Z,2.35
2022-09-23T17:29:39.789Z,2.72
2022-09-23T17:32:08.698Z,2.88
2022-09-23T17:34:35.655Z,3.13
2022-09-23T17:37:02.801Z,3.00
2022-09-23T17:39:29.829Z,4.35
2022-09-23T17:41:58.705Z,3.75
2022-09-23T17:44:25.732Z,3.45
2022-09-23T17:46:52.742Z,3.22
2022-09-23T17:49:20.468Z,3.35
2022-09-23T17:51:47.428Z,3.47
2022-09-23T17:54:15.217Z,2.63
2022-09-23T17:56:42.925Z,2.33
2022-09-23T17:59:12.789Z,2.78
2022-09-23T18:01:39.994Z,5.00
2022-09-23T18:04:07.250Z,3.35
2022-09-23T18:06:37.150Z,2.70
2022-09-23T18:09:07.226Z,2.08
2022-09-23T18:11:39.803Z,2.58
2022-09-23T18:14:13.449Z,2.42
2022-09-23T18:16:42.464Z,2.55
2022-09-23T18:19:12.580Z,2.30
2022-09-23T18:21:42.488Z,3.67
2022-09-23T18:27:00.003Z,2.35
2022-09-23T18:29:27.268Z,2.17
2022-09-23T18:31:54.608Z,2.30
2022-09-23T18:34:22.001Z,2.20
2022-09-23T18:36:48.997Z,2.50
2022-09-23T18:39:16.076Z,2.05
2022-09-23T18:41:43.283Z,3.03
2022-09-23T18:44:10.338Z,2.20
2022-09-23T18:46:37.382Z,2.20
2022-09-23T18:49:23.588Z,2.10
2022-09-23T18:51:56.037Z,1.70
2022-09-23T18:54:24.943Z,2.47
2022-09-23T18:56:54.623Z,2.35
2022-09-23T18:59:25.328Z,3.20
2022-09-23T19:01:55.629Z,2.05
2022-09-23T19:04:24.733Z,2.30
2022-09-23T19:06:52.070Z,2.47
2022-09-23T19:09:19.371Z,3.35
2022-09-23T19:11:46.783Z,2.38
2022-09-23T19:14:13.975Z,2.13
2022-09-23T19:16:41.770Z,2.35
2022-09-23T19:19:09.835Z,2.40
2022-09-23T19:21:37.379Z,2.53
2022-09-23T19:24:07.332Z,2.30
2022-09-23T19:26:39.361Z,2.42
2022-09-23T19:29:08.564Z,2.28
2022-09-23T19:31:40.963Z,2.42
2022-09-23T19:34:13.201Z,2.75
2022-09-23T19:36:43.052Z,2.55
2022-09-23T19:39:27.819Z,2.17
2022-09-23T19:41:59.146Z,1.90
2022-09-23T19:44:27.123Z,2.10
2022-09-23T19:46:56.742Z,1.90
2022-09-23T19:49:25.129Z,2.10
2022-09-23T19:51:56.064Z,2.22
2022-09-23T19:54:26.238Z,2.05
2022-09-23T19:56:53.245Z,2.00
2022-09-23T19:59:20.308Z,2.35
2022-09-23T20:01:50.365Z,2.58
2022-09-23T20:04:17.605Z,3.28
2022-09-23T20:06:46.148Z,2.88
2022-09-23T20:09:13.195Z,2.25
2022-09-23T20:11:43.037Z,2.50
2022-09-23T20:14:10.518Z,2.08
2022-09-23T20:16:40.605Z,2.30
2022-09-23T20:19:07.673Z,1.83
2022-09-23T20:21:35.547Z,2.67
2022-09-23T20:24:05.842Z,1.92
2022-09-23T20:26:51.410Z,2.35
2022-09-23T20:29:18.491Z,1.60
2022-09-23T20:31:45.532Z,2.17
2022-09-23T20:34:12.790Z,1.95
2022-09-23T20:36:41.472Z,1.63
2022-09-23T20:39:10.116Z,2.00
2022-09-23T20:41:38.552Z,1.98
2022-09-23T20:44:09.559Z,1.95
2022-09-23T20:46:36.710Z,1.73
2022-09-23T20:49:04.464Z,1.67
2022-09-23T20:51:33.597Z,1.85
2022-09-23T20:54:01.066Z,1.77
2022-09-23T20:56:29.294Z,1.88
2022-09-23T20:59:04.110Z,1.55
2022-09-23T21:01:37.178Z,2.08
2022-09-23T21:04:06.021Z,1.75
2022-09-23T21:06:35.435Z,1.95
2022-09-23T21:09:03.174Z,2.13
2022-09-23T21:11:30.134Z,2.67
2022-09-23T21:13:58.870Z,2.47
2022-09-23T21:16:26.033Z,2.50
2022-09-23T21:18:53.134Z,3.08
2022-09-23T21:21:22.416Z,2.40
2022-09-23T21:23:50.538Z,2.40
2022-09-23T21:26:25.506Z,2.20
2022-09-23T21:28:55.582Z,3.08
2022-09-23T21:31:36.788Z,2.30
2022-09-23T21:34:08.892Z,1.85
2022-09-23T21:36:41.849Z,2.15
2022-09-23T21:39:10.646Z,2.03
2022-09-23T21:41:38.526Z,1.70
2022-09-23T21:44:06.766Z,2.40
2022-09-23T21:46:35.386Z,2.38
2022-09-23T21:49:03.966Z,1.80
2022-09-23T21:51:41.149Z,2.40
2022-09-23T21:54:14.323Z,2.08
2022-09-23T21:56:42.028Z,2.33
2022-09-23T21:59:09.274Z,1.73
2022-09-23T22:01:39.508Z,2.17
2022-09-23T22:04:13.406Z,1.80
2022-09-23T22:06:40.687Z,2.33
2022-09-23T22:09:12.040Z,2.47
2022-09-23T22:14:26.209Z,2.20
2022-09-23T22:16:57.672Z,2.15
2022-09-23T22:19:27.169Z,1.95
2022-09-23T22:21:56.128Z,2.65
2022-09-23T22:24:23.371Z,2.30
2022-09-23T22:26:50.567Z,3.03
2022-09-23T22:29:36.486Z,2.83
2022-09-23T22:32:24.249Z,2.72
2022-09-23T22:34:52.408Z,2.45
2022-09-23T22:37:22.167Z,2.47
2022-09-23T22:39:49.142Z,2.47
2022-09-23T22:42:16.401Z,2.33
2022-09-23T22:44:43.367Z,2.35
2022-09-23T22:47:10.714Z,2.40
2022-09-23T22:49:37.748Z,2.55
2022-09-23T22:52:08.105Z,2.25
2022-09-23T22:54:35.807Z,2.50
2022-09-23T22:57:07.436Z,2.47
2022-09-23T22:59:35.110Z,2.42
2022-09-23T23:02:03.184Z,2.22
2022-09-23T23:04:31.211Z,3.33
2022-09-23T23:06:59.003Z,2.25
2022-09-23T23:09:26.267Z,2.38
2022-09-23T23:11:53.222Z,3.00
2022-09-23T23:14:20.270Z,2.20
2022-09-23T23:16:47.665Z,2.35
2022-09-23T23:19:17.376Z,3.60
2022-09-23T23:21:45.726Z,3.42
2022-09-23T23:24:23.557Z,4.10
2022-09-23T23:26:51.466Z,4.80
2022-09-23T23:29:21.101Z,4.97
2022-09-23T23:31:48.725Z,4.95
2022-09-23T23:34:18.232Z,4.90
2022-09-23T23:36:46.568Z,4.30
2022-09-23T23:39:14.501Z,4.18
2022-09-23T23:41:41.830Z,3.80
2022-09-23T23:44:08.890Z,3.63
2022-09-23T23:46:37.559Z,3.17
2022-09-23T23:49:04.797Z,3.45
2022-09-23T23:51:31.763Z,4.32
2022-09-23T23:53:59.227Z,4.10
2022-09-23T23:56:27.106Z,3.63
2022-09-23T23:58:55.949Z,3.17
